createdAt,value
2022-09-12T00:01:40.456Z,11.60
2022-09-12T00:04:07.173Z,10.18
2022-09-12T00:06:36.113Z,11.93
2022-09-12T00:09:06.528Z,10.48
2022-09-12T00:11:37.004Z,15.40
2022-09-12T00:14:04.693Z,11.73
2022-09-12T00:16:33.873Z,11.70
2022-09-12T00:19:01.380Z,14.45
2022-09-12T00:21:28.539Z,11.05
2022-09-12T00:23:55.246Z,12.02
2022-09-12T00:26:22.107Z,12.10
2022-09-12T00:28:49.056Z,13.73
2022-09-12T00:31:18.228Z,12.45
2022-09-12T00:33:45.219Z,14.30
2022-09-12T00:36:14.898Z,11.65
2022-09-12T00:38:43.077Z,13.25
2022-09-12T00:41:22.956Z,12.55
2022-09-12T00:43:52.396Z,13.38
2022-09-12T00:46:37.439Z,14.30
2022-09-12T00:49:19.522Z,9.15
2022-09-12T00:51:50.498Z,13.20
2022-09-12T00:54:20.962Z,10.45
2022-09-12T00:56:54.693Z,12.45
2022-09-12T00:59:31.765Z,12.77
2022-09-12T01:01:58.663Z,11.10
2022-09-12T01:04:26.439Z,12.30
2022-09-12T01:06:54.322Z,12.05
2022-09-12T01:11:49.841Z,11.70
2022-09-12T01:14:17.652Z,12.50
2022-09-12T01:19:38.572Z,11.73
2022-09-12T01:22:23.208Z,10.15
2022-09-12T01:25:15.277Z,13.63
2022-09-12T01:27:44.105Z,12.18
2022-09-12T01:30:43.300Z,11.25
2022-09-12T01:33:21.234Z,13.27
2022-09-12T01:36:24.209Z,14.45
2022-09-12T01:39:15.139Z,12.77
2022-09-12T01:42:16.583Z,10.50
2022-09-12T01:44:52.240Z,11.23
2022-09-12T01:47:22.459Z,11.50
2022-09-12T01:50:11.271Z,12.65
2022-09-12T01:52:52.607Z,14.15
2022-09-12T01:55:34.067Z,10.73
2022-09-12T01:58:10.155Z,12.13
2022-09-12T02:00:44.310Z,10.82
2022-09-12T02:03:14.791Z,10.90
2022-09-12T02:06:01.526Z,11.45
2022-09-12T02:08:51.372Z,10.48
2022-09-12T02:11:18.320Z,14.70
2022-09-12T02:13:49.560Z,9.88
2022-09-12T02:16:30.813Z,11.75
2022-09-12T02:19:07.983Z,12.80
2022-09-12T02:21:36.805Z,9.80
2022-09-12T02:24:05.030Z,10.57
2022-09-12T02:26:35.446Z,14.40
2022-09-12T02:29:03.603Z,14.15
2022-09-12T02:31:46.691Z,12.95
2022-09-12T02:34:31.012Z,11.95
2022-09-12T02:37:01.483Z,9.05
2022-09-12T02:39:28.182Z,11.45
2022-09-12T02:41:55.933Z,10.77
2022-09-12T02:44:24.704Z,10.10
2022-09-12T02:46:54.925Z,12.95
2022-09-12T02:49:22.263Z,10.68
2022-09-12T02:51:49.195Z,10.43
2022-09-12T02:54:17.268Z,11.95
2022-09-12T02:56:45.347Z,12.30
2022-09-12T02:59:15.634Z,11.40
2022-09-12T03:02:04.456Z,13.68
2022-09-12T03:04:53.989Z,13.98
2022-09-12T03:07:23.422Z,12.00
2022-09-12T03:10:15.740Z,11.00
2022-09-12T03:13:03.965Z,10.98
2022-09-12T03:15:52.210Z,10.50
2022-09-12T03:18:52.021Z,14.55
2022-09-12T03:21:39.757Z,11.80
2022-09-12T03:24:19.372Z,12.00
2022-09-12T03:27:09.427Z,13.05
2022-09-12T03:29:38.506Z,11.10
2022-09-12T03:32:05.136Z,12.60
2022-09-12T03:34:32.124Z,11.00
2022-09-12T03:36:59.458Z,11.00
2022-09-12T03:39:26.910Z,13.50
2022-09-12T03:41:54.808Z,16.15
2022-09-12T03:46:47.826Z,11.63
2022-09-12T03:49:14.355Z,12.45
2022-09-12T03:51:41.261Z,12.40
2022-09-12T03:54:07.938Z,12.38
2022-09-12T03:56:35.358Z,12.13
2022-09-12T03:59:05.528Z,12.05
2022-09-12T04:01:32.183Z,9.98
2022-09-12T04:03:58.833Z,10.35
2022-09-12T04:06:25.420Z,13.27
2022-09-12T04:08:53.415Z,18.33
2022-09-12T04:11:21.884Z,11.57
2022-09-12T04:13:48.571Z,12.70
2022-09-12T04:16:16.596Z,10.35
2022-09-12T04:18:43.663Z,14.38
2022-09-12T04:21:12.963Z,10.50
2022-09-12T04:23:39.508Z,18.98
2022-09-12T04:26:09.097Z,14.15
2022-09-12T04:28:37.603Z,9.05
2022-09-12T04:31:07.527Z,11.50
2022-09-12T04:33:35.237Z,13.30
2022-09-12T04:36:10.683Z,9.88
2022-09-12T04:38:37.909Z,8.38
2022-09-12T04:41:15.155Z,7.32
2022-09-12T04:43:43.140Z,8.23
2022-09-12T04:46:11.450Z,8.07
2022-09-12T04:51:30.978Z,8.15
2022-09-12T04:54:03.090Z,10.85
2022-09-12T04:56:30.772Z,9.70
2022-09-12T04:58:58.730Z,8.57
2022-09-12T05:01:26.248Z,10.18
2022-09-12T05:03:52.917Z,10.27
2022-09-12T05:06:25.454Z,9.20
2022-09-12T05:08:52.872Z,8.45
2022-09-12T05:11:25.451Z,11.30
2022-09-12T05:13:54.921Z,8.88
2022-09-12T05:16:22.698Z,10.38
2022-09-12T05:18:50.230Z,13.93
2022-09-12T05:21:23.126Z,23.27
2022-09-12T05:23:57.476Z,52.38
2022-09-12T05:28:51.805Z,100.50
2022-09-12T05:31:23.786Z,105.53
2022-09-12T05:33:51.844Z,110.10
2022-09-12T05:36:21.502Z,110.32
2022-09-12T05:38:48.289Z,102.07
2022-09-12T05:41:24.242Z,70.88
2022-09-12T05:44:00.069Z,19.77
2022-09-12T05:46:28.570Z,69.40
2022-09-12T05:48:56.791Z,22.35
2022-09-12T05:51:28.481Z,39.25
2022-09-12T05:53:59.949Z,13.77
2022-09-12T05:56:28.737Z,33.08
2022-09-12T05:58:59.019Z,38.20
2022-09-12T06:01:27.111Z,20.52
2022-09-12T06:03:55.990Z,28.70
2022-09-12T06:06:24.416Z,12.07
2022-09-12T06:08:53.542Z,10.50
2022-09-12T06:11:23.098Z,11.85
2022-09-12T06:13:51.019Z,25.15
2022-09-12T06:18:49.659Z,26.05
2022-09-12T06:21:16.479Z,26.35
2022-09-12T06:23:43.160Z,23.40
2022-09-12T06:26:10.809Z,71.07
2022-09-12T06:28:39.923Z,27.90
2022-09-12T06:31:11.816Z,33.80
2022-09-12T06:33:42.033Z,24.38
2022-09-12T06:36:12.633Z,32.53
2022-09-12T06:38:40.391Z,47.13
2022-09-12T06:41:09.726Z,25.63
2022-09-12T06:43:37.010Z,16.55
2022-09-12T06:46:03.823Z,18.27
2022-09-12T06:48:31.144Z,19.73
2022-09-12T06:51:02.362Z,17.95
2022-09-12T06:53:30.272Z,16.20
2022-09-12T06:58:25.591Z,17.90
2022-09-12T07:00:55.998Z,18.55
2022-09-12T07:03:25.105Z,22.30
2022-09-12T07:05:51.608Z,20.45
2022-09-12T07:08:18.273Z,17.08
2022-09-12T07:10:45.497Z,19.70
2022-09-12T07:13:12.234Z,20.35
2022-09-12T07:15:38.873Z,19.23
2022-09-12T07:18:05.623Z,21.70
2022-09-12T07:20:35.748Z,22.15
2022-09-12T07:23:02.769Z,18.70
2022-09-12T07:25:29.366Z,19.63
2022-09-12T07:27:55.901Z,16.98
2022-09-12T07:30:23.123Z,18.23
2022-09-12T07:32:54.027Z,18.30
2022-09-12T07:35:21.332Z,20.00
2022-09-12T07:37:48.022Z,18.33
2022-09-12T07:40:14.683Z,18.83
2022-09-12T07:42:41.280Z,17.92
2022-09-12T07:45:08.188Z,17.23
2022-09-12T07:47:35.268Z,19.77
2022-09-12T07:50:02.354Z,16.13
2022-09-12T07:52:29.451Z,17.35
2022-09-12T07:54:55.981Z,13.60
2022-09-12T07:57:22.539Z,14.88
2022-09-12T07:59:52.849Z,17.85
2022-09-12T08:02:20.340Z,14.60
2022-09-12T08:04:48.006Z,15.52
2022-09-12T08:07:14.867Z,14.95
2022-09-12T08:09:41.450Z,13.27
2022-09-12T08:12:08.011Z,15.35
2022-09-12T08:14:34.552Z,11.35
2022-09-12T08:17:01.127Z,13.35
2022-09-12T08:19:27.751Z,12.35
2022-09-12T08:21:54.289Z,15.48
2022-09-12T08:24:20.783Z,13.00
2022-09-12T08:26:47.611Z,10.77
2022-09-12T08:29:14.515Z,9.68
2022-09-12T08:31:42.469Z,8.60
2022-09-12T08:34:09.421Z,11.95
2022-09-12T08:36:36.334Z,8.18
2022-09-12T08:39:06.527Z,7.72
2022-09-12T08:41:39.984Z,8.70
2022-09-12T08:44:28.481Z,6.95
2022-09-12T08:47:15.630Z,9.77
2022-09-12T08:49:51.463Z,7.57
2022-09-12T08:52:26.501Z,7.00
2022-09-12T08:54:56.309Z,6.13
2022-09-12T08:57:24.276Z,8.02
2022-09-12T08:59:51.414Z,7.88
2022-09-12T09:02:31.137Z,8.25
2022-09-12T09:05:35.292Z,6.40
2022-09-12T09:08:17.281Z,8.07
2022-09-12T09:10:54.943Z,7.20
2022-09-12T09:14:17.215Z,4.82
2022-09-12T09:16:44.964Z,8.77
2022-09-12T09:19:17.456Z,9.18
2022-09-12T09:21:49.971Z,6.30
2022-09-12T09:24:19.672Z,6.57
2022-09-12T09:26:53.479Z,9.95
2022-09-12T09:29:30.271Z,6.93
2022-09-12T09:31:58.769Z,6.05
2022-09-12T09:34:29.935Z,5.28
2022-09-12T09:37:21.233Z,6.20
2022-09-12T09:40:00.029Z,4.90
2022-09-12T09:42:43.852Z,5.93
2022-09-12T09:45:16.300Z,6.85
2022-09-12T09:47:48.965Z,6.43
2022-09-12T09:50:19.346Z,6.22
2022-09-12T09:52:47.552Z,4.97
2022-09-12T09:55:22.014Z,3.92
2022-09-12T09:57:49.929Z,8.10
2022-09-12T10:00:35.686Z,8.10
2022-09-12T10:03:22.166Z,5.20
2022-09-12T10:05:59.946Z,4.13
2022-09-12T10:08:35.212Z,5.43
2022-09-12T10:11:17.015Z,3.63
2022-09-12T10:13:56.854Z,4.25
2022-09-12T10:16:28.389Z,4.20
2022-09-12T10:18:56.867Z,4.55
2022-09-12T10:21:34.271Z,5.05
2022-09-12T10:24:24.407Z,3.70
2022-09-12T10:27:05.967Z,6.43
2022-09-12T10:29:36.176Z,5.20
2022-09-12T10:32:06.617Z,4.45
2022-09-12T10:34:39.914Z,3.47
2022-09-12T10:37:08.964Z,4.85
2022-09-12T10:39:38.486Z,3.20
2022-09-12T10:42:05.703Z,4.90
2022-09-12T10:44:34.115Z,4.05
2022-09-12T10:47:19.899Z,5.57
2022-09-12T10:49:46.554Z,3.35
2022-09-12T10:52:28.448Z,4.57
2022-09-12T10:54:55.090Z,5.88
2022-09-12T10:57:38.472Z,4.65
2022-09-12T11:00:19.798Z,3.70
2022-09-12T11:03:22.095Z,4.43
2022-09-12T11:05:58.422Z,4.13
2022-09-12T11:09:04.456Z,4.28
2022-09-12T11:12:02.454Z,4.80
2022-09-12T11:14:31.953Z,3.35
2022-09-12T11:17:19.810Z,4.22
2022-09-12T11:19:53.310Z,3.70
2022-09-12T11:23:00.349Z,4.85
2022-09-12T11:25:48.132Z,5.57
2022-09-12T11:28:25.965Z,4.78
2022-09-12T11:31:08.692Z,4.13
2022-09-12T11:33:43.243Z,5.85
2022-09-12T11:36:35.672Z,2.92
2022-09-12T11:39:15.870Z,5.53
2022-09-12T11:41:49.495Z,5.72
2022-09-12T11:44:24.749Z,3.22
2022-09-12T11:46:52.234Z,4.20
2022-09-12T11:49:24.271Z,2.70
2022-09-12T11:52:01.863Z,3.08
2022-09-12T11:54:31.303Z,3.08
2022-09-12T11:57:16.883Z,2.78
2022-09-12T11:59:48.014Z,3.17
2022-09-12T12:02:25.924Z,3.63
2022-09-12T12:05:39.222Z,2.58
2022-09-12T12:08:06.762Z,2.95
2022-09-12T12:13:13.816Z,4.75
2022-09-12T12:15:46.807Z,3.60
2022-09-12T12:18:24.688Z,3.97
2022-09-12T12:20:52.049Z,2.88
2022-09-12T12:23:34.859Z,2.97
2022-09-12T12:26:02.910Z,2.63
2022-09-12T12:28:41.750Z,2.95
2022-09-12T12:31:09.963Z,3.15
2022-09-12T12:33:39.554Z,3.15
2022-09-12T12:36:09.751Z,4.05
2022-09-12T12:38:38.258Z,4.75
2022-09-12T12:41:16.976Z,2.75
2022-09-12T12:43:45.278Z,2.88
2022-09-12T12:46:14.192Z,3.33
2022-09-12T12:49:05.985Z,5.47
2022-09-12T12:52:01.481Z,3.63
2022-09-12T12:54:40.313Z,2.80
2022-09-12T12:57:19.672Z,4.93
2022-09-12T12:59:52.428Z,3.00
2022-09-12T13:02:27.387Z,2.88
2022-09-12T13:04:55.356Z,2.70
2022-09-12T13:07:26.677Z,3.53
2022-09-12T13:09:54.582Z,3.17
2022-09-12T13:12:24.907Z,2.88
2022-09-12T13:14:59.447Z,3.63
2022-09-12T13:17:30.698Z,2.10
2022-09-12T13:20:28.010Z,2.45
2022-09-12T13:22:55.268Z,2.90
2022-09-12T13:25:32.501Z,3.38
2022-09-12T13:28:18.551Z,3.10
2022-09-12T13:30:56.033Z,2.35
2022-09-12T13:33:37.571Z,4.03
2022-09-12T13:36:14.231Z,2.10
2022-09-12T13:39:05.729Z,2.10
2022-09-12T13:42:05.075Z,5.20
2022-09-12T13:44:43.512Z,2.63
2022-09-12T13:47:14.706Z,2.78
2022-09-12T13:49:41.798Z,3.10
2022-09-12T13:52:14.654Z,2.38
2022-09-12T13:54:44.848Z,2.17
2022-09-12T13:57:29.351Z,4.53
2022-09-12T13:59:57.624Z,2.15
2022-09-12T14:02:27.745Z,3.00
2022-09-12T14:05:09.233Z,6.55
2022-09-12T14:07:59.814Z,1.77
2022-09-12T14:10:38.130Z,1.90
2022-09-12T14:13:11.971Z,1.30
2022-09-12T14:18:08.670Z,2.97
2022-09-12T14:20:39.375Z,1.30
2022-09-12T14:23:27.436Z,2.65
2022-09-12T14:25:56.280Z,2.42
2022-09-12T14:28:23.852Z,3.10
2022-09-12T14:31:06.685Z,2.55
2022-09-12T14:33:46.668Z,3.90
2022-09-12T14:36:49.932Z,3.15
2022-09-12T14:39:22.441Z,1.63
2022-09-12T14:41:49.650Z,1.08
2022-09-12T14:44:24.383Z,1.98
2022-09-12T14:46:51.319Z,2.28
2022-09-12T14:49:24.004Z,1.63
2022-09-12T14:51:51.480Z,2.40
2022-09-12T14:54:27.497Z,1.90
2022-09-12T14:56:56.621Z,2.20
2022-09-12T14:59:35.496Z,2.17
2022-09-12T15:02:17.127Z,1.52
2022-09-12T15:04:46.258Z,2.58
2022-09-12T15:07:50.311Z,1.70
2022-09-12T15:10:25.209Z,2.08
2022-09-12T15:13:14.202Z,1.55
2022-09-12T15:15:43.076Z,3.75
2022-09-12T15:18:09.672Z,1.38
2022-09-12T15:20:37.733Z,2.25
2022-09-12T15:23:06.529Z,1.90
2022-09-12T15:25:33.170Z,1.75
2022-09-12T15:28:00.714Z,1.77
2022-09-12T15:32:54.905Z,1.90
2022-09-12T15:35:33.081Z,2.03
2022-09-12T15:37:59.590Z,2.55
2022-09-12T15:40:26.559Z,2.75
2022-09-12T15:42:53.305Z,2.05
2022-09-12T15:45:24.875Z,2.20
2022-09-12T15:47:51.891Z,1.55
2022-09-12T15:50:18.435Z,2.08
2022-09-12T15:52:45.362Z,1.75
2022-09-12T15:55:26.250Z,3.42
2022-09-12T15:57:52.935Z,1.67
2022-09-12T16:00:20.295Z,2.75
2022-09-12T16:02:49.166Z,2.38
2022-09-12T16:05:19.683Z,1.42
2022-09-12T16:07:46.490Z,2.75
2022-09-12T16:10:18.186Z,3.50
2022-09-12T16:12:45.589Z,2.50
2022-09-12T16:15:15.315Z,4.78
2022-09-12T16:17:42.185Z,7.93
2022-09-12T16:20:09.383Z,1.67
2022-09-12T16:22:36.334Z,3.92
2022-09-12T16:25:04.177Z,2.47
2022-09-12T16:27:30.994Z,2.40
2022-09-12T16:29:57.731Z,2.33
2022-09-12T16:32:24.377Z,2.17
2022-09-12T16:34:50.891Z,2.08
2022-09-12T16:37:18.105Z,5.05
2022-09-12T16:39:45.004Z,4.97
2022-09-12T16:42:11.858Z,3.90
2022-09-12T16:44:38.387Z,4.10
2022-09-12T16:47:09.409Z,3.22
2022-09-12T16:49:35.978Z,9.75
2022-09-12T16:52:02.888Z,3.88
2022-09-12T16:54:29.485Z,4.78
2022-09-12T16:56:55.987Z,2.97
2022-09-12T16:59:22.539Z,3.17
2022-09-12T17:01:49.170Z,3.80
2022-09-12T17:04:15.787Z,2.78
2022-09-12T17:06:42.533Z,2.75
2022-09-12T17:09:11.110Z,2.70
2022-09-12T17:11:38.886Z,3.85
2022-09-12T17:14:07.559Z,2.58
2022-09-12T17:16:36.631Z,3.35
2022-09-12T17:19:03.915Z,3.25
2022-09-12T17:21:30.893Z,3.90
2022-09-12T17:23:57.394Z,3.25
2022-09-12T17:26:24.424Z,3.53
2022-09-12T17:28:51.022Z,4.65
2022-09-12T17:31:17.627Z,4.35
2022-09-12T17:33:44.382Z,3.90
2022-09-12T17:36:16.545Z,2.65
2022-09-12T17:38:45.171Z,3.72
2022-09-12T17:41:17.626Z,2.25
2022-09-12T17:43:46.307Z,2.33
2022-09-12T17:46:13.207Z,5.00
2022-09-12T17:48:39.838Z,4.95
2022-09-12T17:51:14.377Z,3.65
2022-09-12T17:53:42.092Z,3.53
2022-09-12T17:58:36.447Z,3.40
2022-09-12T18:01:24.375Z,2.75
2022-09-12T18:03:54.855Z,4.22
2022-09-12T18:06:22.703Z,3.75
2022-09-12T18:08:49.266Z,3.20
2022-09-12T18:11:16.546Z,5.47
2022-09-12T18:13:43.093Z,5.13
2022-09-12T18:16:12.618Z,8.02
2022-09-12T18:18:39.428Z,4.30
2022-09-12T18:21:07.023Z,6.13
2022-09-12T18:26:08.289Z,3.35
2022-09-12T18:28:37.465Z,4.13
2022-09-12T18:31:05.047Z,6.75
2022-09-12T18:36:04.269Z,6.50
2022-09-12T18:38:31.227Z,4.38
2022-09-12T18:41:05.044Z,4.20
2022-09-12T18:43:32.032Z,6.45
2022-09-12T18:46:09.639Z,3.55
2022-09-12T18:48:36.334Z,3.28
2022-09-12T18:51:07.993Z,4.47
2022-09-12T18:53:35.508Z,4.60
2022-09-12T18:56:04.051Z,6.70
2022-09-12T18:58:30.628Z,3.55
2022-09-12T19:00:58.093Z,4.20
2022-09-12T19:03:24.939Z,4.43
2022-09-12T19:05:51.563Z,2.92
2022-09-12T19:08:18.147Z,4.90
2022-09-12T19:10:44.709Z,11.63
2022-09-12T19:13:11.171Z,4.70
2022-09-12T19:15:40.259Z,7.60
2022-09-12T19:18:06.871Z,6.38
2022-09-12T19:20:35.810Z,6.55
2022-09-12T19:23:02.555Z,3.88
2022-09-12T19:25:29.353Z,4.28
2022-09-12T19:27:55.912Z,7.88
2022-09-12T19:30:22.454Z,4.75
2022-09-12T19:32:48.983Z,3.65
2022-09-12T19:35:15.735Z,5.90
2022-09-12T19:37:42.491Z,8.52
2022-09-12T19:40:09.398Z,3.75
2022-09-12T19:42:35.947Z,3.92
2022-09-12T19:45:02.475Z,4.10
2022-09-12T19:47:29.437Z,4.47
2022-09-12T19:49:57.189Z,5.53
2022-09-12T19:54:50.160Z,4.07
2022-09-12T19:57:17.395Z,5.85
2022-09-12T19:59:45.095Z,6.03
2022-09-12T20:02:11.683Z,4.25
2022-09-12T20:04:39.095Z,5.70
2022-09-12T20:07:05.621Z,4.20
2022-09-12T20:09:32.095Z,3.88
2022-09-12T20:11:58.688Z,4.03
2022-09-12T20:14:25.186Z,3.20
2022-09-12T20:16:51.755Z,3.42
2022-09-12T20:19:18.293Z,4.63
2022-09-12T20:21:44.988Z,4.80
2022-09-12T20:24:13.586Z,3.33
2022-09-12T20:26:40.407Z,5.22
2022-09-12T20:29:08.037Z,4.55
2022-09-12T20:31:35.561Z,4.00
2022-09-12T20:34:02.501Z,4.80
2022-09-12T20:36:29.099Z,4.53
2022-09-12T20:38:57.957Z,4.50
2022-09-12T20:41:25.586Z,4.80
2022-09-12T20:43:53.392Z,4.10
2022-09-12T20:46:22.087Z,3.72
2022-09-12T20:48:49.474Z,4.80
2022-09-12T20:51:16.683Z,4.35
2022-09-12T20:53:43.240Z,4.43
2022-09-12T20:56:09.928Z,4.45
2022-09-12T20:58:40.411Z,6.30
2022-09-12T21:01:14.146Z,5.20
2022-09-12T21:03:43.903Z,4.10
2022-09-12T21:06:12.615Z,3.67
2022-09-12T21:08:39.550Z,9.40
2022-09-12T21:11:06.533Z,3.58
2022-09-12T21:13:35.908Z,4.95
2022-09-12T21:16:24.042Z,4.20
2022-09-12T21:18:59.613Z,6.90
2022-09-12T21:21:26.642Z,4.18
2022-09-12T21:23:55.318Z,3.78
2022-09-12T21:26:21.896Z,4.65
2022-09-12T21:28:48.592Z,5.20
2022-09-12T21:31:15.206Z,4.30
2022-09-12T21:33:42.049Z,3.58
2022-09-12T21:36:09.608Z,6.30
2022-09-12T21:38:36.338Z,5.05
2022-09-12T21:41:10.990Z,5.13
2022-09-12T21:43:38.277Z,4.30
2022-09-12T21:46:05.674Z,4.38
2022-09-12T21:48:33.014Z,5.10
2022-09-12T21:50:59.708Z,6.90
2022-09-12T21:53:26.637Z,5.00
2022-09-12T21:55:53.483Z,6.25
2022-09-12T21:58:20.156Z,4.53
2022-09-12T22:00:47.130Z,5.65
2022-09-12T22:03:14.420Z,6.00
2022-09-12T22:05:41.039Z,4.28
2022-09-12T22:08:08.027Z,4.15
2022-09-12T22:10:34.650Z,6.22
2022-09-12T22:13:01.602Z,4.80
2022-09-12T22:15:43.577Z,3.92
2022-09-12T22:18:10.709Z,4.72
2022-09-12T22:20:37.317Z,4.00
2022-09-12T22:23:24.765Z,5.18
2022-09-12T22:25:54.314Z,6.15
2022-09-12T22:28:21.268Z,5.70
2022-09-12T22:30:48.592Z,4.13
2022-09-12T22:33:15.412Z,7.30
2022-09-12T22:35:42.411Z,4.63
2022-09-12T22:38:09.183Z,5.78
2022-09-12T22:40:35.881Z,4.43
2022-09-12T22:43:02.548Z,5.32
2022-09-12T22:45:29.194Z,5.95
2022-09-12T22:47:59.189Z,5.50
2022-09-12T22:50:27.597Z,4.38
2022-09-12T22:52:54.175Z,5.07
2022-09-12T22:55:20.671Z,7.55
2022-09-12T22:57:47.243Z,3.20
2022-09-12T23:00:14.885Z,4.93
2022-09-12T23:02:41.632Z,5.13
2022-09-12T23:05:08.621Z,5.43
2022-09-12T23:07:35.246Z,6.25
2022-09-12T23:10:01.761Z,6.68
2022-09-12T23:12:28.302Z,3.33
2022-09-12T23:14:54.800Z,4.43
2022-09-12T23:17:21.368Z,6.32
2022-09-12T23:19:48.390Z,4.28
2022-09-12T23:22:14.974Z,6.20
2022-09-12T23:24:41.591Z,4.97
2022-09-12T23:27:08.307Z,4.38
2022-09-12T23:29:35.377Z,4.50
2022-09-12T23:32:03.301Z,5.57
2022-09-12T23:36:56.644Z,5.13
2022-09-12T23:39:23.410Z,5.35
2022-09-12T23:41:50.381Z,4.47
2022-09-12T23:44:17.073Z,4.40
2022-09-12T23:46:43.617Z,6.07
2022-09-12T23:49:10.115Z,9.50
2022-09-12T23:51:36.769Z,4.57
2022-09-12T23:54:03.473Z,4.25
2022-09-12T23:56:30.057Z,5.47
2022-09-12T23:58:56.591Z,4.88
